Time;durP1;ratioP1;P1;durP2;ratioP2;P2;SDS_P1;SDS_P2;PMS_P1;PMS_P2;Temp;Humidity;BMP_temperature;BMP_pressure;BME280_temperature;BME280_humidity;BME280_pressure;Samples;Min_cycle;Max_cycle;Signal;HPM_P1;HPM_P2
2022/01/10 00:00:52;;;;;;;31.70;6.67;;;3.90;94.40;;;;;;5034034;28;20645;-94
2022/01/10 00:03:18;;;;;;;19.03;5.73;;;3.80;94.30;;;;;;5034179;28;20165;-92
2022/01/10 00:05:44;;;;;;;25.47;5.13;;;3.80;94.30;;;;;;5033416;28;20178;-95
2022/01/10 00:08:11;;;;;;;21.07;5.43;;;3.80;94.20;;;;;;5040492;28;20208;-96
2022/01/10 00:10:37;;;;;;;20.50;4.97;;;3.80;94.20;;;;;;5045040;28;20173;-95
2022/01/10 00:13:03;;;;;;;20.97;5.43;;;3.70;94.20;;;;;;5045529;28;20188;-93
2022/01/10 00:15:28;;;;;;;21.23;5.13;;;3.70;94.20;;;;;;5038393;28;20204;-93
2022/01/10 00:17:54;;;;;;;23.33;5.30;;;3.60;94.10;;;;;;5034467;28;20209;-94
2022/01/10 00:20:20;;;;;;;18.10;4.93;;;3.50;94.20;;;;;;5034267;28;20267;-94
2022/01/10 00:22:48;;;;;;;14.53;4.27;;;3.40;94.20;;;;;;5039329;28;20199;-95
2022/01/10 00:25:17;;;;;;;20.23;4.80;;;3.40;94.20;;;;;;5040271;28;20262;-92
2022/01/10 00:27:43;;;;;;;27.23;4.60;;;3.30;94.30;;;;;;5038199;28;20203;-94
2022/01/10 00:30:10;;;;;;;20.03;4.63;;;3.30;94.30;;;;;;5039332;28;20180;-94
2022/01/10 00:32:41;;;;;;;21.07;4.03;;;3.40;94.30;;;;;;5041447;28;20184;-93
2022/01/10 00:35:08;;;;;;;17.93;4.60;;;3.50;94.40;;;;;;5039305;28;20201;-93
2022/01/10 00:37:35;;;;;;;21.27;5.20;;;3.50;94.40;;;;;;5037296;28;20200;-94
2022/01/10 00:40:03;;;;;;;22.70;5.20;;;3.60;94.50;;;;;;5039002;28;20181;-93
2022/01/10 00:42:29;;;;;;;26.80;4.73;;;3.80;94.50;;;;;;5039367;28;20648;-93
2022/01/10 00:44:57;;;;;;;19.87;4.90;;;3.80;94.50;;;;;;5038899;28;20652;-94
2022/01/10 00:47:23;;;;;;;21.57;4.90;;;3.90;94.50;;;;;;5041302;28;20201;-94
2022/01/10 00:49:49;;;;;;;22.03;5.00;;;4.00;94.60;;;;;;5051100;28;20279;-95
2022/01/10 00:52:15;;;;;;;17.23;4.67;;;4.10;94.50;;;;;;5048943;28;20255;-94
2022/01/10 00:54:41;;;;;;;26.70;7.17;;;4.10;94.50;;;;;;5051225;28;20177;-93
2022/01/10 00:57:07;;;;;;;27.57;5.70;;;4.10;94.40;;;;;;5044969;28;20228;-94
2022/01/10 00:59:32;;;;;;;25.73;6.03;;;4.10;94.40;;;;;;5048997;28;20183;-93
2022/01/10 01:01:58;;;;;;;29.70;6.83;;;4.10;94.30;;;;;;5045610;28;20235;-92
2022/01/10 01:04:24;;;;;;;29.93;7.10;;;4.20;94.30;;;;;;5042304;28;20180;-92
2022/01/10 01:06:50;;;;;;;27.17;7.27;;;4.10;94.20;;;;;;5046008;28;20204;-95
2022/01/10 01:09:20;;;;;;;22.63;6.50;;;4.10;94.10;;;;;;5046283;28;20208;-93
2022/01/10 01:14:22;;;;;;;20.53;7.53;;;4.00;94.10;;;;;;5048911;28;20177;-94
2022/01/10 01:16:57;;;;;;;29.40;7.30;;;4.00;94.00;;;;;;5047016;28;20223;-94
2022/01/10 01:20:07;;;;;;;21.93;7.83;;;4.00;94.10;;;;;;5042445;28;20175;-91
2022/01/10 01:24:59;;;;;;;29.67;8.70;;;3.90;94.10;;;;;;5041004;28;20168;-93
2022/01/10 01:27:25;;;;;;;32.30;8.30;;;3.90;94.10;;;;;;5038026;28;20205;-93
2022/01/10 01:29:50;;;;;;;21.67;8.00;;;4.00;94.20;;;;;;5041544;28;20181;-93
2022/01/10 01:32:16;;;;;;;21.83;7.90;;;3.90;94.10;;;;;;5056718;28;20253;-93
2022/01/10 01:34:41;;;;;;;31.77;8.40;;;3.90;94.10;;;;;;5055382;28;20200;-92
2022/01/10 01:37:09;;;;;;;23.77;7.57;;;3.90;94.20;;;;;;5056851;28;20220;-93
2022/01/10 01:39:35;;;;;;;26.33;8.30;;;3.90;94.20;;;;;;5053243;28;20188;-92
2022/01/10 01:42:31;;;;;;;24.00;8.20;;;3.90;94.20;;;;;;5040296;28;20184;-92
2022/01/10 01:44:53;;;;;;;25.60;8.27;;;3.90;94.20;;;;;;5040256;28;20173;-92
2022/01/10 01:47:19;;;;;;;16.03;7.23;;;3.90;94.30;;;;;;5039537;28;20201;-92
2022/01/10 01:49:45;;;;;;;20.93;7.77;;;3.90;94.30;;;;;;5059749;28;20169;-94
2022/01/10 01:52:14;;;;;;;24.07;8.43;;;3.90;94.30;;;;;;5060122;28;20181;-96
2022/01/10 01:57:15;;;;;;;30.93;8.67;;;3.90;94.30;;;;;;5324839;22;20717;-93
2022/01/10 01:59:40;;;;;;;26.07;7.50;;;3.90;94.40;;;;;;5058361;28;20157;-93
2022/01/10 02:02:06;;;;;;;20.90;7.33;;;3.80;94.40;;;;;;5057288;28;20177;-92
2022/01/10 02:04:32;;;;;;;26.13;8.63;;;3.80;94.40;;;;;;5056368;28;20181;-92
2022/01/10 02:06:57;;;;;;;23.20;7.00;;;4.00;94.50;;;;;;5055902;28;20204;-92
2022/01/10 02:09:23;;;;;;;22.40;7.53;;;3.90;94.40;;;;;;5055612;28;20184;-92
2022/01/10 02:11:48;;;;;;;20.93;6.80;;;3.90;94.40;;;;;;5054892;28;20180;-92
2022/01/10 02:14:18;;;;;;;22.87;8.17;;;3.80;94.40;;;;;;5054122;28;20185;-91
2022/01/10 02:16:52;;;;;;;22.00;8.00;;;3.80;94.50;;;;;;5055047;28;20261;-92
2022/01/10 02:19:17;;;;;;;29.03;7.93;;;3.80;94.50;;;;;;5054073;28;20536;-90
2022/01/10 02:21:43;;;;;;;28.00;7.50;;;3.70;94.60;;;;;;5054090;28;20179;-92
2022/01/10 02:24:09;;;;;;;24.43;8.20;;;3.80;94.60;;;;;;5053939;28;20640;-90
2022/01/10 02:26:37;;;;;;;23.13;7.23;;;3.70;94.60;;;;;;5053539;28;20204;-91
2022/01/10 02:29:03;;;;;;;19.27;7.93;;;3.70;94.70;;;;;;5054844;28;20176;-91
2022/01/10 02:31:29;;;;;;;19.87;8.20;;;3.60;94.80;;;;;;5053509;28;20184;-91
2022/01/10 02:33:57;;;;;;;20.37;7.17;;;3.60;94.80;;;;;;5053594;28;20551;-92
2022/01/10 02:36:26;;;;;;;28.10;7.77;;;3.70;94.80;;;;;;5053333;28;20623;-92
2022/01/10 02:39:06;;;;;;;22.50;8.30;;;3.70;94.90;;;;;;5053652;28;20172;-92
2022/01/10 02:41:38;;;;;;;22.67;6.87;;;3.70;94.90;;;;;;5053656;28;20188;-91
2022/01/10 02:44:14;;;;;;;17.53;6.23;;;3.80;94.90;;;;;;5053736;28;20164;-91
2022/01/10 02:46:42;;;;;;;20.93;6.50;;;3.80;94.90;;;;;;5052603;28;20762;-91
2022/01/10 02:49:16;;;;;;;17.47;5.70;;;3.80;95.00;;;;;;5053354;28;20182;-91
2022/01/10 02:51:42;;;;;;;26.13;6.67;;;3.90;94.90;;;;;;5053551;28;20165;-92
2022/01/10 02:54:08;;;;;;;21.73;7.13;;;3.80;94.90;;;;;;5053351;28;20202;-91
2022/01/10 02:56:55;;;;;;;16.07;6.10;;;3.90;94.90;;;;;;5052913;28;20692;-91
2022/01/10 02:59:22;;;;;;;30.40;6.80;;;3.80;94.90;;;;;;5052957;28;20587;-92
2022/01/10 03:01:49;;;;;;;19.73;6.43;;;3.80;94.90;;;;;;5053256;28;20172;-92
2022/01/10 03:04:17;;;;;;;21.13;5.87;;;3.80;94.90;;;;;;5053002;28;20180;-92
2022/01/10 03:06:44;;;;;;;18.67;6.33;;;3.80;94.90;;;;;;5052845;28;20334;-91
2022/01/10 03:09:11;;;;;;;18.87;5.43;;;3.80;94.90;;;;;;5053053;28;20188;-92
2022/01/10 03:11:38;;;;;;;24.03;5.93;;;3.80;94.90;;;;;;5052962;28;20553;-92
2022/01/10 03:14:04;;;;;;;18.40;5.70;;;3.90;94.90;;;;;;5054412;28;20707;-92
2022/01/10 03:16:30;;;;;;;22.53;5.93;;;3.90;94.90;;;;;;5053213;28;20217;-92
2022/01/10 03:18:56;;;;;;;19.87;5.60;;;3.90;94.90;;;;;;5053072;28;20202;-92
2022/01/10 03:21:22;;;;;;;16.70;5.40;;;3.90;94.90;;;;;;5052882;28;20548;-91
2022/01/10 03:23:51;;;;;;;21.97;5.63;;;3.80;94.80;;;;;;5052604;28;20172;-92
2022/01/10 03:26:20;;;;;;;20.17;5.97;;;3.90;94.80;;;;;;5052469;28;20184;-91
2022/01/10 03:28:46;;;;;;;20.27;5.70;;;3.90;94.90;;;;;;5052486;28;20176;-92
2022/01/10 03:31:12;;;;;;;14.80;5.73;;;3.80;94.80;;;;;;5052636;28;20181;-92
2022/01/10 03:33:37;;;;;;;20.47;5.13;;;3.90;94.80;;;;;;5053578;28;20715;-91
2022/01/10 03:36:04;;;;;;;16.17;5.60;;;3.80;94.80;;;;;;5052471;28;20198;-91
2022/01/10 03:38:30;;;;;;;20.53;5.60;;;3.80;94.80;;;;;;5052522;28;20187;-91
2022/01/10 03:40:55;;;;;;;18.73;5.47;;;3.70;94.80;;;;;;5053669;28;20173;-92
2022/01/10 03:43:21;;;;;;;18.00;5.03;;;3.80;94.80;;;;;;5052448;28;20247;-91
2022/01/10 03:45:47;;;;;;;20.13;6.20;;;3.80;94.80;;;;;;5052605;28;20276;-91
2022/01/10 03:48:12;;;;;;;20.03;4.87;;;3.80;94.80;;;;;;5054077;28;20277;-92
2022/01/10 03:50:38;;;;;;;19.77;5.03;;;3.80;94.80;;;;;;5052533;28;20180;-92
2022/01/10 03:53:04;;;;;;;15.07;4.87;;;3.70;94.80;;;;;;5052728;28;20644;-90
2022/01/10 03:55:30;;;;;;;16.90;4.90;;;3.70;94.80;;;;;;5052261;28;20299;-92
2022/01/10 03:57:56;;;;;;;16.97;4.63;;;3.80;94.80;;;;;;5054766;28;20239;-92
2022/01/10 04:00:22;;;;;;;19.70;5.03;;;3.70;94.80;;;;;;5056565;28;20655;-92
2022/01/10 04:02:55;;;;;;;11.57;4.80;;;3.70;94.70;;;;;;5056595;28;20178;-91
2022/01/10 04:05:21;;;;;;;10.30;4.77;;;3.70;94.70;;;;;;5057106;28;20165;-92
2022/01/10 04:07:47;;;;;;;11.60;4.60;;;3.70;94.70;;;;;;5056584;28;20259;-92
2022/01/10 04:10:12;;;;;;;16.63;5.13;;;3.70;94.70;;;;;;5056257;28;20248;-92
2022/01/10 04:12:38;;;;;;;18.80;4.67;;;3.70;94.80;;;;;;5056152;28;20173;-91
2022/01/10 04:15:04;;;;;;;12.83;4.33;;;3.70;94.80;;;;;;5056189;28;20249;-92
2022/01/10 04:17:30;;;;;;;16.80;5.17;;;3.70;94.70;;;;;;5056164;28;20198;-92
2022/01/10 04:19:56;;;;;;;11.73;4.30;;;3.70;94.70;;;;;;5056035;28;20549;-91
2022/01/10 04:22:21;;;;;;;12.90;4.90;;;3.70;94.80;;;;;;5056441;28;20266;-91
2022/01/10 04:24:47;;;;;;;16.50;5.30;;;3.70;94.70;;;;;;5056063;28;20250;-91
2022/01/10 04:27:13;;;;;;;15.53;5.23;;;3.70;94.80;;;;;;5056257;28;20186;-92
2022/01/10 04:29:39;;;;;;;20.20;7.07;;;3.70;94.80;;;;;;5056383;28;20642;-91
2022/01/10 04:32:05;;;;;;;19.97;8.60;;;3.80;94.80;;;;;;5056960;28;20232;-93
2022/01/10 04:34:30;;;;;;;23.33;9.70;;;3.80;94.80;;;;;;5056187;28;20277;-94
2022/01/10 04:36:56;;;;;;;45.70;12.77;;;3.80;94.80;;;;;;5056041;28;20344;-94
2022/01/10 04:39:22;;;;;;;57.20;14.77;;;3.70;94.70;;;;;;5056079;28;20711;-93
2022/01/10 04:41:48;;;;;;;34.30;12.93;;;3.60;94.60;;;;;;5055876;28;20526;-92
2022/01/10 04:44:14;;;;;;;46.17;13.80;;;3.50;94.60;;;;;;5055792;28;20175;-94
2022/01/10 04:46:40;;;;;;;52.23;15.70;;;3.50;94.50;;;;;;5055638;28;20687;-93
2022/01/10 04:49:11;;;;;;;67.57;14.77;;;3.40;94.60;;;;;;5055647;28;20675;-92
2022/01/10 04:51:38;;;;;;;51.57;14.93;;;3.40;94.60;;;;;;5055496;28;20164;-94
2022/01/10 04:54:04;;;;;;;62.53;17.13;;;3.40;94.70;;;;;;5055708;28;20552;-93
2022/01/10 04:56:30;;;;;;;54.87;15.03;;;3.40;94.70;;;;;;5055169;28;20219;-93
2022/01/10 04:58:56;;;;;;;45.37;15.13;;;3.40;94.70;;;;;;5055398;28;20187;-93
2022/01/10 05:01:22;;;;;;;57.73;15.47;;;3.30;94.70;;;;;;5055410;28;20172;-94
2022/01/10 05:03:47;;;;;;;53.60;14.97;;;3.40;94.80;;;;;;5055541;28;20229;-92
2022/01/10 05:06:13;;;;;;;49.50;15.37;;;3.30;94.80;;;;;;5055293;28;20195;-92
2022/01/10 05:08:39;;;;;;;61.90;15.47;;;3.30;94.90;;;;;;5054622;28;20179;-92
2022/01/10 05:11:04;;;;;;;51.40;15.17;;;3.30;94.80;;;;;;5055579;28;20187;-93
2022/01/10 05:13:34;;;;;;;43.80;16.20;;;3.40;94.90;;;;;;5055404;28;20180;-92
2022/01/10 05:15:59;;;;;;;37.47;13.83;;;3.40;94.90;;;;;;5055270;28;20663;-92
2022/01/10 05:18:25;;;;;;;42.43;13.77;;;3.30;94.90;;;;;;5054899;28;20168;-92
2022/01/10 05:20:51;;;;;;;29.63;13.97;;;3.40;94.90;;;;;;5055147;28;20207;-92
2022/01/10 05:23:17;;;;;;;41.77;14.47;;;3.30;94.90;;;;;;5055535;28;20211;-91
2022/01/10 05:25:43;;;;;;;26.70;13.03;;;3.30;94.90;;;;;;5054883;28;20660;-92
2022/01/10 05:28:11;;;;;;;25.87;13.53;;;3.30;94.90;;;;;;5055159;28;20200;-92
2022/01/10 05:30:38;;;;;;;36.43;13.67;;;3.30;94.90;;;;;;5054647;28;20183;-92
2022/01/10 05:33:06;;;;;;;30.77;13.33;;;3.30;94.90;;;;;;5055059;28;20554;-91
2022/01/10 05:35:31;;;;;;;24.47;14.07;;;3.30;94.90;;;;;;5054642;28;20295;-92
2022/01/10 05:37:57;;;;;;;19.30;12.87;;;3.30;94.90;;;;;;5054765;28;20220;-94
2022/01/10 05:40:23;;;;;;;21.37;12.70;;;3.30;95.00;;;;;;5054715;28;20632;-91
2022/01/10 05:42:48;;;;;;;18.90;11.80;;;3.30;95.00;;;;;;5054746;28;20179;-92
2022/01/10 05:45:14;;;;;;;14.20;12.07;;;3.30;95.00;;;;;;5054931;28;20176;-92
2022/01/10 05:47:42;;;;;;;15.83;12.07;;;3.30;95.00;;;;;;5054496;28;20203;-92
2022/01/10 05:50:11;;;;;;;14.17;11.63;;;3.30;94.90;;;;;;5054683;28;20172;-91
2022/01/10 05:52:37;;;;;;;15.90;11.27;;;3.30;95.00;;;;;;5055639;28;20173;-92
2022/01/10 05:55:04;;;;;;;17.60;11.40;;;3.30;94.90;;;;;;5054573;28;20183;-92
2022/01/10 05:57:29;;;;;;;18.77;12.23;;;3.30;94.90;;;;;;5054181;28;20207;-92
2022/01/10 05:59:55;;;;;;;18.57;10.27;;;3.30;94.90;;;;;;5054463;28;20267;-90
2022/01/10 06:02:21;;;;;;;11.97;10.23;;;3.30;94.90;;;;;;5054435;28;20180;-93
2022/01/10 06:04:46;;;;;;;12.40;10.67;;;3.20;94.90;;;;;;5054138;28;20220;-93
2022/01/10 06:07:13;;;;;;;20.63;11.10;;;3.30;94.90;;;;;;5053698;28;20661;-91
2022/01/10 06:09:38;;;;;;;16.60;11.63;;;3.30;94.90;;;;;;5054190;28;20186;-92
2022/01/10 06:12:05;;;;;;;13.77;11.43;;;3.20;94.90;;;;;;5054040;28;20172;-91
2022/01/10 06:14:30;;;;;;;22.47;13.00;;;3.20;94.90;;;;;;5054935;28;20214;-92
2022/01/10 06:16:56;;;;;;;13.23;11.40;;;3.20;94.90;;;;;;5054127;28;20211;-92
2022/01/10 06:19:21;;;;;;;17.07;12.37;;;3.20;94.80;;;;;;5054102;28;20643;-91
2022/01/10 06:21:47;;;;;;;15.63;12.23;;;3.10;94.80;;;;;;5053705;28;20567;-91
2022/01/10 06:24:13;;;;;;;14.20;11.97;;;3.10;94.80;;;;;;5054018;28;20176;-92
2022/01/10 06:26:39;;;;;;;14.93;12.13;;;3.10;94.80;;;;;;5053861;28;20196;-93
2022/01/10 06:29:04;;;;;;;14.27;11.93;;;3.10;94.80;;;;;;5054174;28;20631;-92
2022/01/10 06:31:30;;;;;;;16.90;12.60;;;3.10;94.90;;;;;;5053670;28;20583;-90
2022/01/10 06:33:56;;;;;;;16.30;13.13;;;3.10;94.80;;;;;;5054997;28;20275;-92
2022/01/10 06:36:22;;;;;;;16.47;13.43;;;3.10;94.80;;;;;;5054738;28;20199;-92
2022/01/10 06:38:48;;;;;;;16.40;12.70;;;3.10;94.80;;;;;;5053522;28;20172;-91
2022/01/10 06:41:13;;;;;;;17.40;14.60;;;3.00;94.80;;;;;;5053370;28;20179;-92
2022/01/10 06:43:39;;;;;;;18.27;14.80;;;3.10;94.80;;;;;;5053598;28;20168;-92
2022/01/10 06:46:06;;;;;;;18.93;14.20;;;3.00;94.80;;;;;;5053541;28;20711;-91
2022/01/10 06:48:32;;;;;;;18.27;14.50;;;3.00;94.90;;;;;;5053829;28;20210;-91
2022/01/10 06:50:58;;;;;;;17.30;15.00;;;3.00;94.90;;;;;;5053255;28;20178;-92
2022/01/10 06:53:24;;;;;;;17.97;14.83;;;3.00;94.90;;;;;;5053261;28;20179;-92
2022/01/10 06:55:50;;;;;;;20.07;15.63;;;3.00;94.90;;;;;;5053420;28;20203;-91
2022/01/10 06:58:16;;;;;;;21.53;16.27;;;3.00;94.90;;;;;;5053387;28;20544;-92
2022/01/10 07:00:42;;;;;;;19.23;16.57;;;3.00;94.90;;;;;;5053103;28;20187;-91
2022/01/10 07:03:08;;;;;;;20.23;15.97;;;3.00;94.90;;;;;;5053284;28;20199;-92
2022/01/10 07:05:34;;;;;;;20.90;16.90;;;3.00;94.90;;;;;;5053502;28;20229;-91
2022/01/10 07:08:00;;;;;;;20.93;16.67;;;3.00;94.80;;;;;;5052809;28;20223;-91
2022/01/10 07:10:25;;;;;;;20.73;17.00;;;3.00;94.90;;;;;;5053838;28;20698;-91
2022/01/10 07:12:52;;;;;;;23.63;17.87;;;3.10;94.80;;;;;;5053251;28;20212;-91
2022/01/10 07:15:18;;;;;;;20.83;16.93;;;3.00;94.80;;;;;;5052987;28;20668;-92
2022/01/10 07:17:43;;;;;;;20.00;16.53;;;3.00;94.80;;;;;;5052966;28;20188;-92
2022/01/10 07:20:10;;;;;;;18.70;16.00;;;3.00;94.80;;;;;;5053058;28;20222;-91
2022/01/10 07:22:35;;;;;;;18.37;16.47;;;3.10;94.80;;;;;;5052981;28;20176;-91
2022/01/10 07:25:01;;;;;;;19.40;16.53;;;3.00;94.80;;;;;;5052930;28;20175;-91
2022/01/10 07:27:27;;;;;;;22.07;17.37;;;3.00;94.80;;;;;;5052668;28;20196;-91
2022/01/10 07:29:52;;;;;;;20.40;16.97;;;3.00;94.80;;;;;;5052974;28;20183;-91
2022/01/10 07:32:19;;;;;;;21.37;17.13;;;3.00;94.80;;;;;;5052616;28;20274;-91
2022/01/10 07:34:44;;;;;;;21.07;16.73;;;3.00;94.80;;;;;;5052957;28;20291;-90
2022/01/10 07:37:10;;;;;;;20.27;16.50;;;3.00;94.70;;;;;;5055896;28;20223;-90
2022/01/10 07:39:36;;;;;;;20.90;17.90;;;3.00;94.70;;;;;;5052825;28;20172;-91
2022/01/10 07:42:02;;;;;;;19.40;16.20;;;3.10;94.70;;;;;;5059629;28;20184;-93
2022/01/10 07:44:28;;;;;;;18.50;16.57;;;3.00;94.60;;;;;;5065351;28;20187;-92
2022/01/10 07:46:55;;;;;;;19.20;16.73;;;3.10;94.60;;;;;;5052767;28;20196;-91
2022/01/10 07:49:21;;;;;;;21.30;17.37;;;3.00;94.50;;;;;;5052566;28;20176;-91
2022/01/10 07:51:47;;;;;;;22.40;17.40;;;3.00;94.50;;;;;;5053358;28;20184;-91
2022/01/10 07:54:13;;;;;;;22.93;17.27;;;3.00;94.40;;;;;;5052462;28;20562;-91
2022/01/10 07:56:39;;;;;;;19.50;17.30;;;3.00;94.50;;;;;;5052209;28;20219;-91
2022/01/10 07:59:04;;;;;;;20.37;17.53;;;3.00;94.50;;;;;;5052190;28;20253;-92
2022/01/10 08:01:30;;;;;;;20.37;17.87;;;3.10;94.40;;;;;;5052753;28;20183;-92
2022/01/10 08:03:56;;;;;;;20.13;17.30;;;3.10;94.40;;;;;;5052285;28;20271;-90
2022/01/10 08:06:22;;;;;;;22.20;18.00;;;3.00;94.40;;;;;;5052242;28;20294;-89
2022/01/10 08:08:47;;;;;;;20.90;18.60;;;3.00;94.40;;;;;;5052018;28;20659;-91
2022/01/10 08:11:14;;;;;;;21.10;17.73;;;3.00;94.40;;;;;;5052240;28;20180;-91
2022/01/10 08:13:41;;;;;;;22.23;19.00;;;3.00;94.40;;;;;;5052257;28;20187;-92
2022/01/10 08:16:07;;;;;;;21.47;18.93;;;3.10;94.40;;;;;;5052079;28;20250;-91
2022/01/10 08:18:34;;;;;;;20.23;18.03;;;3.00;94.40;;;;;;5052410;28;20176;-92
2022/01/10 08:21:01;;;;;;;22.03;18.50;;;3.00;94.30;;;;;;5053330;28;20168;-91
2022/01/10 08:23:27;;;;;;;23.37;18.93;;;3.10;94.30;;;;;;5051990;28;20263;-91
2022/01/10 08:25:53;;;;;;;22.37;18.80;;;3.00;94.30;;;;;;5053440;28;20176;-92
2022/01/10 08:28:18;;;;;;;22.63;18.90;;;3.00;94.30;;;;;;5052333;28;20664;-91
2022/01/10 08:30:44;;;;;;;21.27;18.13;;;3.10;94.30;;;;;;5052061;28;20531;-91
2022/01/10 08:33:10;;;;;;;23.97;19.33;;;3.10;94.30;;;;;;5052188;28;20210;-91
2022/01/10 08:35:36;;;;;;;24.23;19.73;;;3.10;94.30;;;;;;5052173;28;20679;-91
2022/01/10 08:38:02;;;;;;;22.83;18.57;;;3.10;94.30;;;;;;5052489;28;20197;-93
2022/01/10 08:40:28;;;;;;;23.20;19.27;;;3.10;94.30;;;;;;5052688;28;20184;-92
2022/01/10 08:42:53;;;;;;;23.63;19.87;;;3.20;94.30;;;;;;5052393;28;20239;-91
2022/01/10 08:45:19;;;;;;;25.50;19.60;;;3.20;94.30;;;;;;5055727;28;20180;-92
2022/01/10 08:47:46;;;;;;;22.43;19.50;;;3.20;94.30;;;;;;5055759;28;20203;-93
2022/01/10 08:50:12;;;;;;;23.97;20.00;;;3.20;94.30;;;;;;5055694;28;20238;-92
2022/01/10 08:52:39;;;;;;;21.90;19.43;;;3.20;94.30;;;;;;5055834;28;20180;-91
2022/01/10 08:55:08;;;;;;;25.93;21.00;;;3.20;94.30;;;;;;5056983;28;20583;-93
2022/01/10 08:57:34;;;;;;;26.60;21.80;;;3.20;94.30;;;;;;5055625;28;20231;-92
2022/01/10 09:00:00;;;;;;;27.10;21.73;;;3.20;94.30;;;;;;5055452;28;20267;-93
2022/01/10 09:02:26;;;;;;;28.23;22.30;;;3.10;94.20;;;;;;5055949;28;20172;-91
2022/01/10 09:04:53;;;;;;;31.23;23.43;;;3.10;94.20;;;;;;5056353;28;20533;-93
2022/01/10 09:07:18;;;;;;;27.60;22.13;;;3.10;94.10;;;;;;5056065;28;20198;-91
2022/01/10 09:09:44;;;;;;;29.23;22.83;;;3.10;94.10;;;;;;5055892;28;20270;-93
2022/01/10 09:12:11;;;;;;;29.63;22.70;;;3.10;94.10;;;;;;5056152;28;20187;-92
2022/01/10 09:14:36;;;;;;;30.63;22.97;;;3.10;94.00;;;;;;5055762;28;20176;-92
2022/01/10 09:17:03;;;;;;;28.67;22.80;;;3.20;94.00;;;;;;5055768;28;20218;-91
2022/01/10 09:19:29;;;;;;;33.77;24.27;;;3.10;94.00;;;;;;5055060;28;20172;-92
2022/01/10 09:21:58;;;;;;;34.03;23.93;;;3.20;94.00;;;;;;5072336;28;20186;-93
2022/01/10 09:24:25;;;;;;;32.47;25.20;;;3.20;94.00;;;;;;5080652;28;20184;-96
2022/01/10 09:26:53;;;;;;;35.17;24.73;;;3.20;94.00;;;;;;5080568;28;20188;-96
2022/01/10 09:29:19;;;;;;;33.37;24.90;;;3.20;94.00;;;;;;5113545;22;20282;-96
2022/01/10 09:31:48;;;;;;;38.27;26.53;;;3.20;94.00;;;;;;5083750;28;20163;-96
2022/01/10 09:34:14;;;;;;;35.07;25.00;;;3.20;94.00;;;;;;5067032;28;20155;-96
2022/01/10 09:36:41;;;;;;;34.10;25.23;;;3.20;93.90;;;;;;5083641;28;20213;-96
2022/01/10 11:01:59;;;;;;;46.87;31.17;;;4.20;91.80;;;;;;4730524;22;20280;-91
2022/01/10 11:04:25;;;;;;;42.43;29.37;;;4.30;91.80;;;;;;5056134;28;20258;-92
2022/01/10 11:06:51;;;;;;;42.53;28.67;;;4.50;91.90;;;;;;5054090;28;20201;-91
2022/01/10 11:09:18;;;;;;;43.67;30.07;;;4.60;91.50;;;;;;5061793;28;20188;-93
2022/01/10 11:11:44;;;;;;;46.13;30.33;;;4.50;91.00;;;;;;5073588;28;20175;-93
2022/01/10 11:14:14;;;;;;;44.20;30.73;;;4.60;90.90;;;;;;5071650;28;20200;-91
2022/01/10 11:16:42;;;;;;;39.23;26.13;;;4.50;90.80;;;;;;5068154;28;20209;-91
2022/01/10 11:19:15;;;;;;;33.73;24.80;;;4.60;90.70;;;;;;5071272;28;20185;-91
2022/01/10 11:21:46;;;;;;;42.57;28.80;;;4.50;90.40;;;;;;5063235;28;20549;-91
2022/01/10 11:24:11;;;;;;;38.07;26.50;;;4.50;90.20;;;;;;5073020;28;20152;-90
2022/01/10 11:26:39;;;;;;;39.30;27.37;;;4.60;90.30;;;;;;5055102;28;20316;-93
2022/01/10 11:29:08;;;;;;;40.67;28.13;;;4.60;90.20;;;;;;5054871;28;20566;-92
2022/01/10 11:31:36;;;;;;;35.77;25.67;;;4.60;90.00;;;;;;5056723;28;20234;-91
2022/01/10 11:34:02;;;;;;;38.83;27.20;;;4.60;90.10;;;;;;5055280;28;20667;-91
2022/01/10 11:36:29;;;;;;;36.30;26.97;;;4.70;89.90;;;;;;5054265;28;20209;-91
2022/01/10 11:39:00;;;;;;;37.97;27.13;;;4.60;89.50;;;;;;5059962;28;20175;-91
2022/01/10 11:41:29;;;;;;;41.30;27.40;;;4.70;89.70;;;;;;5059298;28;20162;-91
2022/01/10 11:44:07;;;;;;;37.03;26.53;;;4.60;89.60;;;;;;5054495;28;20178;-91
2022/01/10 11:46:46;;;;;;;38.83;26.20;;;4.60;89.90;;;;;;5053574;28;20209;-92
2022/01/10 11:49:12;;;;;;;39.00;26.03;;;4.60;89.70;;;;;;5060450;28;20184;-92
2022/01/10 11:51:38;;;;;;;38.13;26.70;;;4.60;89.70;;;;;;5064519;28;20222;-88
2022/01/10 11:54:12;;;;;;;35.90;25.33;;;4.70;89.60;;;;;;5054138;28;20207;-88
2022/01/10 11:56:41;;;;;;;34.20;24.47;;;4.70;89.60;;;;;;5052782;28;20723;-89
2022/01/10 11:59:17;;;;;;;37.13;26.27;;;4.70;89.10;;;;;;5052414;28;20200;-87
2022/01/10 12:01:46;;;;;;;38.63;26.27;;;4.60;89.20;;;;;;5054168;28;21378;-88
2022/01/10 12:04:12;;;;;;;37.37;24.53;;;4.70;89.10;;;;;;5052752;28;20555;-89
2022/01/10 12:06:39;;;;;;;40.27;27.97;;;4.60;89.00;;;;;;5052584;28;20205;-88
2022/01/10 12:09:05;;;;;;;43.00;29.37;;;4.70;89.20;;;;;;5053402;28;20182;-88
2022/01/10 12:11:32;;;;;;;43.93;29.07;;;4.70;89.30;;;;;;5052568;28;20569;-88
2022/01/10 12:13:59;;;;;;;40.57;29.10;;;4.60;89.50;;;;;;5053749;28;20205;-88
2022/01/10 12:16:26;;;;;;;42.07;29.73;;;4.70;89.70;;;;;;5052309;28;20220;-89
2022/01/10 12:18:53;;;;;;;40.97;29.13;;;4.70;90.00;;;;;;5054984;28;20662;-89
2022/01/10 12:21:19;;;;;;;45.67;31.53;;;4.80;89.90;;;;;;5056383;28;20239;-89
2022/01/10 12:23:45;;;;;;;47.57;30.37;;;4.60;89.80;;;;;;5056524;28;20270;-92
2022/01/10 12:26:12;;;;;;;44.53;30.17;;;4.60;89.70;;;;;;5056664;28;20709;-90
2022/01/10 12:28:38;;;;;;;44.30;30.00;;;4.60;89.60;;;;;;5056497;28;20264;-89
2022/01/10 12:31:04;;;;;;;47.30;30.77;;;4.60;89.60;;;;;;5056452;28;20204;-90
2022/01/10 12:33:30;;;;;;;42.63;30.23;;;4.50;89.80;;;;;;5057627;28;20513;-89
2022/01/10 12:35:56;;;;;;;44.67;29.97;;;4.60;89.80;;;;;;5056087;28;20254;-90
2022/01/10 12:38:23;;;;;;;47.90;31.33;;;4.50;89.60;;;;;;5055976;28;20205;-90
2022/01/10 12:40:50;;;;;;;48.63;31.43;;;4.50;89.70;;;;;;5056710;28;20178;-89
2022/01/10 12:43:17;;;;;;;44.53;30.80;;;4.60;90.10;;;;;;5056287;28;20180;-90
2022/01/10 12:45:42;;;;;;;44.07;30.30;;;4.50;89.80;;;;;;5056020;28;20180;-89
2022/01/10 12:48:09;;;;;;;47.93;30.77;;;4.50;90.20;;;;;;5055714;28;20280;-90
2022/01/10 12:50:35;;;;;;;42.77;30.13;;;4.40;90.10;;;;;;5055757;28;20178;-89
2022/01/10 12:53:00;;;;;;;46.73;30.67;;;4.40;90.30;;;;;;5055887;28;20179;-90
2022/01/10 12:55:26;;;;;;;43.53;29.57;;;4.40;90.50;;;;;;5055430;28;20204;-90
2022/01/10 12:57:52;;;;;;;44.40;29.10;;;4.30;90.30;;;;;;5055758;28;20200;-91
2022/01/10 13:00:17;;;;;;;40.50;27.77;;;4.40;90.40;;;;;;5055571;28;20169;-91
2022/01/10 13:02:44;;;;;;;43.20;27.23;;;4.30;90.40;;;;;;5055177;28;20695;-89
2022/01/10 13:05:11;;;;;;;40.80;27.53;;;4.40;90.40;;;;;;5055339;28;20181;-90
2022/01/10 13:07:43;;;;;;;43.47;28.67;;;4.30;90.30;;;;;;5056222;28;20231;-91
2022/01/10 13:10:17;;;;;;;41.53;27.97;;;4.30;90.20;;;;;;5055105;28;20229;-90
2022/01/10 13:12:47;;;;;;;39.40;28.00;;;4.30;90.20;;;;;;5055008;28;20218;-91
2022/01/10 13:15:14;;;;;;;42.40;28.43;;;4.40;90.60;;;;;;5055675;28;20164;-89
2022/01/10 13:18:00;;;;;;;39.93;27.63;;;4.30;90.30;;;;;;5056184;28;20196;-90
2022/01/10 13:20:29;;;;;;;43.90;29.30;;;4.30;90.60;;;;;;5054937;28;20676;-90
2022/01/10 13:23:01;;;;;;;43.30;29.77;;;4.40;90.60;;;;;;5054902;28;20181;-89
2022/01/10 13:25:26;;;;;;;45.40;30.57;;;4.40;90.40;;;;;;5054788;28;20176;-91
2022/01/10 13:28:00;;;;;;;45.13;29.47;;;4.30;90.40;;;;;;5054423;28;20573;-90
2022/01/10 13:30:26;;;;;;;40.40;27.83;;;4.30;90.50;;;;;;5054127;28;20180;-89
2022/01/10 13:32:57;;;;;;;47.87;29.67;;;4.40;90.60;;;;;;5054528;28;20177;-89
2022/01/10 13:35:24;;;;;;;42.30;29.27;;;4.40;90.60;;;;;;5056156;28;20189;-90
2022/01/10 13:37:59;;;;;;;45.03;30.73;;;4.40;90.60;;;;;;5054854;28;20242;-90
2022/01/10 13:40:29;;;;;;;43.53;30.07;;;4.40;90.40;;;;;;5054780;28;20252;-89
2022/01/10 13:42:59;;;;;;;37.73;27.77;;;4.40;90.60;;;;;;5054462;28;20179;-89
2022/01/10 13:45:51;;;;;;;43.73;27.83;;;4.40;90.60;;;;;;5054571;28;20177;-89
2022/01/10 13:48:24;;;;;;;43.57;29.40;;;4.40;90.30;;;;;;5054447;28;20710;-90
2022/01/10 13:50:57;;;;;;;41.70;28.93;;;4.30;90.30;;;;;;5054274;28;20283;-89
2022/01/10 13:53:43;;;;;;;40.67;28.13;;;4.30;90.40;;;;;;5054642;28;20175;-88
2022/01/10 13:56:20;;;;;;;40.63;28.67;;;4.30;90.60;;;;;;5054326;28;20195;-89
2022/01/10 13:58:49;;;;;;;45.80;28.80;;;4.30;90.40;;;;;;5054380;28;20160;-89
2022/01/10 14:01:18;;;;;;;45.13;30.50;;;4.30;90.70;;;;;;5054227;28;20713;-90
2022/01/10 14:03:45;;;;;;;53.50;32.27;;;4.30;90.70;;;;;;5055830;28;20588;-89
2022/01/10 14:06:20;;;;;;;45.73;30.67;;;4.20;90.80;;;;;;5054324;28;20179;-90
2022/01/10 14:08:58;;;;;;;50.43;32.30;;;4.20;90.90;;;;;;5055695;28;20209;-88
2022/01/10 14:11:27;;;;;;;45.37;31.20;;;4.20;90.90;;;;;;5054792;28;20723;-89